Back to Top

Language: 

My Weather Underground Personal Weather Station Historical Data with Graphs...

Delerius Weather Station Historical Data
Daily Summary for August 5, 2017 Units:  Metric    English   Both
« Previous Day
Next Day »
Daily Weekly Monthly Yearly Custom
  High: Low: Average:
Temperature: 20.4 °C 9.9 °C 15.4 °C
Dew Point: 11.2 °C 7.8 °C 9.3 °C
Humidity: 94 % 45 % 69 %
Wind Speed: 24.1 km/h 0 km/h 12.6 km/h
Wind Gust: 41.8 km/h - -
Wind:- - WNW
Pressure: 1018.8 hPa 1012.4 hPa -
Precipitation: 0 mm    
Historical Graphs
 
 
Tabular Data for August 5, 2017
Time Temperature Dew Point Pressure Wind Wind Speed Wind Gust Humidity Rainfall Rate (Hourly) solar Conditions
00:03 12.3 °C 10 °C 1012.4 hPa WNW 6.4 km/h 11.3 km/h 86 % 0 mm 0 W/m2
00:08 12.3 °C 10 °C 1012.4 hPa WNW 4.8 km/h 11.3 km/h 86 % 0 mm 0 W/m2
00:13 12.3 °C 10 °C 1012.4 hPa WNW 4.8 km/h 11.3 km/h 86 % 0 mm 0 W/m2
00:18 12.3 °C 10.2 °C 1012.8 hPa WNW 4.8 km/h 11.3 km/h 87 % 0 mm 0 W/m2
00:23 12.2 °C 10.1 °C 1012.8 hPa WNW 6.4 km/h 14.5 km/h 87 % 0 mm 0 W/m2
00:28 12.2 °C 10.1 °C 1012.4 hPa WNW 6.4 km/h 14.5 km/h 87 % 0 mm 0 W/m2
00:33 12.2 °C 10.3 °C 1012.4 hPa WNW 6.4 km/h 12.9 km/h 88 % 0 mm 0 W/m2
00:38 12.2 °C 10.3 °C 1012.4 hPa WNW 6.4 km/h 12.9 km/h 88 % 0 mm 0 W/m2
00:43 12.1 °C 10.2 °C 1012.4 hPa WNW 8 km/h 12.9 km/h 88 % 0 mm 0 W/m2
00:48 12.1 °C 10.2 °C 1012.4 hPa WNW 8 km/h 12.9 km/h 88 % 0 mm 0 W/m2
00:53 12.1 °C 10.2 °C 1012.4 hPa WNW 8 km/h 12.9 km/h 88 % 0 mm 0 W/m2
00:58 12.1 °C 10.2 °C 1012.4 hPa WNW 6.4 km/h 11.3 km/h 88 % 0 mm 0 W/m2
01:03 12.1 °C 10.2 °C 1012.4 hPa WNW 6.4 km/h 12.9 km/h 88 % 0 mm 0 W/m2
01:08 12.1 °C 10.2 °C 1012.4 hPa WNW 8 km/h 12.9 km/h 88 % 0 mm 0 W/m2
01:13 12.1 °C 10.3 °C 1012.4 hPa WNW 8 km/h 12.9 km/h 89 % 0 mm 0 W/m2
01:18 12.1 °C 10.2 °C 1012.4 hPa WNW 8 km/h 12.9 km/h 88 % 0 mm 0 W/m2
01:23 12.1 °C 10.2 °C 1012.4 hPa WNW 8 km/h 11.3 km/h 88 % 0 mm 0 W/m2
01:28 12.1 °C 10.2 °C 1012.4 hPa WNW 8 km/h 11.3 km/h 88 % 0 mm 0 W/m2
01:33 12.1 °C 10.2 °C 1012.4 hPa WNW 6.4 km/h 9.7 km/h 88 % 0 mm 0 W/m2
01:38 12 °C 10.2 °C 1012.4 hPa WNW 6.4 km/h 11.3 km/h 89 % 0 mm 0 W/m2
01:43 12 °C 10.2 °C 1012.4 hPa WNW 8 km/h 11.3 km/h 89 % 0 mm 0 W/m2
01:49 12 °C 10.2 °C 1012.4 hPa NW 8 km/h 11.3 km/h 89 % 0 mm 0 W/m2
01:54 12 °C 10.2 °C 1012.4 hPa NW 6.4 km/h 11.3 km/h 89 % 0 mm 0 W/m2
01:59 11.9 °C 10.2 °C 1012.4 hPa NW 6.4 km/h 12.9 km/h 89 % 0 mm 0 W/m2
02:04 11.9 °C 10.2 °C 1012.4 hPa NW 6.4 km/h 12.9 km/h 89 % 0 mm 0 W/m2
02:09 11.9 °C 10.2 °C 1012.4 hPa NW 6.4 km/h 12.9 km/h 89 % 0 mm 0 W/m2
02:14 11.9 °C 10.2 °C 1012.4 hPa NW 6.4 km/h 11.3 km/h 89 % 0 mm 0 W/m2
02:19 11.9 °C 10.3 °C 1012.4 hPa WNW 6.4 km/h 11.3 km/h 90 % 0 mm 0 W/m2
02:24 11.8 °C 10.2 °C 1012.4 hPa WNW 4.8 km/h 11.3 km/h 90 % 0 mm 0 W/m2
02:29 11.8 °C 10.2 °C 1012.4 hPa NW 4.8 km/h 9.7 km/h 90 % 0 mm 0 W/m2
02:34 11.8 °C 10.2 °C 1012.4 hPa NW 4.8 km/h 9.7 km/h 90 % 0 mm 0 W/m2
02:39 11.7 °C 10.1 °C 1012.4 hPa NW 6.4 km/h 11.3 km/h 90 % 0 mm 0 W/m2
02:44 11.7 °C 10.1 °C 1012.4 hPa NW 6.4 km/h 11.3 km/h 90 % 0 mm 0 W/m2
02:49 11.7 °C 10.1 °C 1012.4 hPa NW 6.4 km/h 11.3 km/h 90 % 0 mm 0 W/m2
02:54 11.7 °C 10.1 °C 1012.4 hPa WNW 6.4 km/h 11.3 km/h 90 % 0 mm 0 W/m2
02:59 11.6 °C 10 °C 1012.4 hPa WNW 6.4 km/h 9.7 km/h 90 % 0 mm 0 W/m2
03:04 11.6 °C 10 °C 1012.4 hPa WNW 6.4 km/h 9.7 km/h 90 % 0 mm 0 W/m2
03:09 11.6 °C 10 °C 1012.4 hPa WNW 4.8 km/h 9.7 km/h 90 % 0 mm 0 W/m2
03:14 11.5 °C 9.9 °C 1012.4 hPa WNW 4.8 km/h 8 km/h 90 % 0 mm 0 W/m2
03:19 11.5 °C 9.9 °C 1012.4 hPa WNW 4.8 km/h 9.7 km/h 90 % 0 mm 0 W/m2
03:24 11.4 °C 10 °C 1012.4 hPa WNW 6.4 km/h 12.9 km/h 91 % 0 mm 0 W/m2
03:29 11.5 °C 10.1 °C 1012.4 hPa WNW 6.4 km/h 12.9 km/h 91 % 0 mm 0 W/m2
03:34 11.4 °C 9.8 °C 1012.4 hPa WNW 3.2 km/h 9.7 km/h 90 % 0 mm 0 W/m2
03:39 11.4 °C 9.8 °C 1012.8 hPa WNW 1.6 km/h 4.8 km/h 90 % 0 mm 0 W/m2
03:44 11.3 °C 9.7 °C 1012.8 hPa Calm   3.2 km/h 90 % 0 mm 0 W/m2
03:49 11.2 °C 9.6 °C 1012.4 hPa WNW 1.6 km/h 6.4 km/h 90 % 0 mm 0 W/m2
03:54 11.2 °C 9.6 °C 1012.4 hPa WNW 3.2 km/h 9.7 km/h 90 % 0 mm 0 W/m2
03:59 11.1 °C 9.7 °C 1012.4 hPa WNW 4.8 km/h 9.7 km/h 91 % 0 mm 0 W/m2
04:04 11.1 °C 9.7 °C 1012.4 hPa WNW 3.2 km/h 9.7 km/h 91 % 0 mm 0 W/m2
04:09 11.1 °C 9.7 °C 1012.4 hPa WNW 4.8 km/h 11.3 km/h 91 % 0 mm 0 W/m2
04:14 11.1 °C 9.7 °C 1012.4 hPa WNW 6.4 km/h 12.9 km/h 91 % 0 mm 0 W/m2
04:20 11 °C 9.6 °C 1012.8 hPa NW 6.4 km/h 12.9 km/h 91 % 0 mm 0 W/m2
04:25 11 °C 9.6 °C 1012.8 hPa NW 8 km/h 14.5 km/h 91 % 0 mm 0 W/m2
04:27 11 °C 9.6 °C 1012.4 hPa WNW 8 km/h 14.5 km/h 91 % 0 mm 0 W/m2
04:32 11 °C 9.6 °C 1012.8 hPa WNW 8 km/h 14.5 km/h 91 % 0 mm 0 W/m2
04:37 11 °C 9.6 °C 1012.8 hPa WNW 4.8 km/h 11.3 km/h 91 % 0 mm 0 W/m2
04:42 10.9 °C 9.5 °C 1012.8 hPa WNW 3.2 km/h 9.7 km/h 91 % 0 mm 0 W/m2
04:47 10.9 °C 9.5 °C 1012.8 hPa WNW 1.6 km/h 8 km/h 91 % 0 mm 0 W/m2
04:52 10.8 °C 9.4 °C 1012.8 hPa WNW 1.6 km/h 3.2 km/h 91 % 0 mm 0 W/m2
04:57 10.7 °C 9.3 °C 1012.8 hPa WNW 1.6 km/h 6.4 km/h 91 % 0 mm 0 W/m2
05:02 10.6 °C 9.2 °C 1012.4 hPa WNW 3.2 km/h 8 km/h 91 % 0 mm 0 W/m2
05:07 10.6 °C 9.3 °C 1012.8 hPa WNW 3.2 km/h 9.7 km/h 92 % 0 mm 0 W/m2
05:12 10.6 °C 9.3 °C 1012.8 hPa WNW 3.2 km/h 9.7 km/h 92 % 0 mm 0 W/m2
05:17 10.6 °C 9.3 °C 1012.8 hPa WNW 1.6 km/h 6.4 km/h 92 % 0 mm 0 W/m2
05:22 10.4 °C 9.2 °C 1012.8 hPa WNW 1.6 km/h 4.8 km/h 92 % 0 mm 0 W/m2
05:27 10.3 °C 8.9 °C 1013.1 hPa Calm   1.6 km/h 91 % 0 mm 0 W/m2
05:32 10.3 °C 9.1 °C 1013.1 hPa WNW 1.6 km/h 6.4 km/h 92 % 0 mm 5 W/m2
05:37 10.2 °C 8.9 °C 1012.8 hPa WNW 3.2 km/h 6.4 km/h 92 % 0 mm 7 W/m2
05:42 10.2 °C 8.9 °C 1012.8 hPa WNW 3.2 km/h 8 km/h 92 % 0 mm 9 W/m2
05:47 10.2 °C 8.9 °C 1013.1 hPa WNW 3.2 km/h 8 km/h 92 % 0 mm 9 W/m2
05:52 10.1 °C 8.8 °C 1012.8 hPa WNW 3.2 km/h 8 km/h 92 % 0 mm 11 W/m2
05:57 10.1 °C 8.8 °C 1013.1 hPa WNW 1.6 km/h 8 km/h 92 % 0 mm 12 W/m2
06:02 10.1 °C 9 °C 1013.1 hPa WNW 1.6 km/h 4.8 km/h 93 % 0 mm 14 W/m2
06:07 10 °C 8.9 °C 1013.1 hPa WNW 1.6 km/h 4.8 km/h 93 % 0 mm 16 W/m2
06:12 9.9 °C 8.7 °C 1013.1 hPa Calm   3.2 km/h 92 % 0 mm 18 W/m2
06:17 9.9 °C 8.8 °C 1013.1 hPa WNW 1.6 km/h 11.3 km/h 93 % 0 mm 19 W/m2
06:22 9.9 °C 8.8 °C 1013.1 hPa WNW 4.8 km/h 11.3 km/h 93 % 0 mm 21 W/m2
06:27 10.1 °C 9.2 °C 1013.1 hPa WNW 8 km/h 12.9 km/h 94 % 0 mm 51 W/m2
06:32 10.3 °C 9.4 °C 1013.1 hPa WNW 8 km/h 14.5 km/h 94 % 0 mm 28 W/m2
06:37 10.7 °C 9.8 °C 1013.1 hPa WNW 9.7 km/h 16.1 km/h 94 % 0 mm 111 W/m2
06:42 11 °C 10.1 °C 1013.1 hPa WNW 8 km/h 16.1 km/h 94 % 0 mm 123 W/m2
06:47 11.2 °C 10.1 °C 1013.1 hPa WNW 6.4 km/h 11.3 km/h 93 % 0 mm 132 W/m2
06:52 11.4 °C 10.3 °C 1013.1 hPa WNW 6.4 km/h 11.3 km/h 93 % 0 mm 144 W/m2
06:57 11.7 °C 10.6 °C 1013.1 hPa WNW 6.4 km/h 11.3 km/h 93 % 0 mm 156 W/m2
07:02 12 °C 10.7 °C 1013.1 hPa WNW 8 km/h 16.1 km/h 92 % 0 mm 163 W/m2
07:07 12.3 °C 10.9 °C 1013.1 hPa WNW 9.7 km/h 16.1 km/h 91 % 0 mm 176 W/m2
07:12 12.6 °C 11 °C 1013.4 hPa WNW 9.7 km/h 16.1 km/h 90 % 0 mm 190 W/m2
07:17 12.8 °C 10.8 °C 1013.4 hPa West 9.7 km/h 16.1 km/h 88 % 0 mm 206 W/m2
07:22 13.1 °C 11.2 °C 1013.4 hPa WNW 8 km/h 17.7 km/h 88 % 0 mm 220 W/m2
07:27 13.5 °C 11 °C 1013.4 hPa WNW 9.7 km/h 17.7 km/h 85 % 0 mm 234 W/m2
07:32 13.8 °C 10.9 °C 1013.4 hPa WNW 12.9 km/h 24.1 km/h 83 % 0 mm 246 W/m2
07:37 14 °C 11 °C 1013.4 hPa WNW 12.9 km/h 24.1 km/h 82 % 0 mm 258 W/m2
07:42 14.3 °C 10.9 °C 1013.4 hPa WNW 12.9 km/h 22.5 km/h 80 % 0 mm 269 W/m2
07:47 14.4 °C 10.8 °C 1013.4 hPa WNW 12.9 km/h 22.5 km/h 79 % 0 mm 285 W/m2
07:52 14.6 °C 10.8 °C 1013.4 hPa WNW 12.9 km/h 20.9 km/h 78 % 0 mm 297 W/m2
07:57 14.8 °C 10.8 °C 1013.4 hPa WNW 12.9 km/h 20.9 km/h 77 % 0 mm 313 W/m2
08:02 15 °C 10.6 °C 1013.4 hPa WNW 12.9 km/h 29 km/h 75 % 0 mm 327 W/m2
08:07 15.2 °C 10.8 °C 1013.4 hPa WNW 12.9 km/h 29 km/h 75 % 0 mm 338 W/m2
08:12 15.3 °C 10.7 °C 1013.4 hPa WNW 12.9 km/h 25.7 km/h 74 % 0 mm 369 W/m2
08:17 15.4 °C 10.8 °C 1013.4 hPa WNW 11.3 km/h 24.1 km/h 74 % 0 mm 369 W/m2
08:22 15.7 °C 10.7 °C 1013.8 hPa WNW 12.9 km/h 30.6 km/h 72 % 0 mm 387 W/m2
08:27 15.7 °C 10.4 °C 1013.8 hPa WNW 16.1 km/h 30.6 km/h 71 % 0 mm 399 W/m2
08:32 15.8 °C 10.6 °C 1013.8 hPa West 14.5 km/h 30.6 km/h 71 % 0 mm 418 W/m2
08:37 15.9 °C 10.7 °C 1013.8 hPa WNW 14.5 km/h 25.7 km/h 71 % 0 mm 427 W/m2
08:42 16.1 °C 10.6 °C 1013.8 hPa WNW 16.1 km/h 25.7 km/h 70 % 0 mm 445 W/m2
08:47 16.3 °C 10.6 °C 1013.8 hPa WNW 16.1 km/h 25.7 km/h 69 % 0 mm 464 W/m2
08:52 16.4 °C 10.5 °C 1013.8 hPa WNW 14.5 km/h 22.5 km/h 68 % 0 mm 485 W/m2
08:57 16.6 °C 10.4 °C 1013.8 hPa WNW 12.9 km/h 24.1 km/h 67 % 0 mm 489 W/m2
09:02 16.7 °C 10.3 °C 1013.8 hPa NW 14.5 km/h 30.6 km/h 66 % 0 mm 504 W/m2
09:07 16.8 °C 10.4 °C 1013.8 hPa WNW 14.5 km/h 30.6 km/h 66 % 0 mm 513 W/m2
09:12 16.7 °C 10.1 °C 1014.1 hPa WNW 14.5 km/h 29 km/h 65 % 0 mm 527 W/m2
09:17 16.9 °C 10.1 °C 1014.1 hPa WNW 16.1 km/h 32.2 km/h 64 % 0 mm 547 W/m2
09:22 17 °C 9.9 °C 1013.8 hPa WNW 16.1 km/h 37 km/h 63 % 0 mm 575 W/m2
09:27 16.9 °C 9.8 °C 1014.1 hPa WNW 17.7 km/h 37 km/h 63 % 0 mm 592 W/m2
09:32 17.1 °C 10 °C 1014.1 hPa WNW 17.7 km/h 33.8 km/h 63 % 0 mm 631 W/m2
09:38 17.1 °C 9.8 °C 1014.1 hPa WNW 17.7 km/h 29 km/h 62 % 0 mm 649 W/m2
09:43 17.2 °C 10.1 °C 1014.1 hPa WNW 16.1 km/h 29 km/h 63 % 0 mm 742 W/m2
09:48 17.3 °C 9.2 °C 1014.1 hPa WNW 14.5 km/h 30.6 km/h 59 % 0 mm 236 W/m2
09:53 17.2 °C 9.4 °C 1014.1 hPa WNW 16.1 km/h 33.8 km/h 60 % 0 mm 649 W/m2
09:58 17.4 °C 9.3 °C 1014.1 hPa WNW 17.7 km/h 33.8 km/h 59 % 0 mm 726 W/m2
10:03 17.5 °C 9.4 °C 1014.1 hPa WNW 17.7 km/h 32.2 km/h 59 % 0 mm 745 W/m2
10:08 17.6 °C 9 °C 1014.4 hPa WNW 17.7 km/h 32.2 km/h 57 % 0 mm 125 W/m2
10:13 17.6 °C 9 °C 1014.1 hPa WNW 17.7 km/h 32.2 km/h 57 % 0 mm 687 W/m2
10:18 17.7 °C 9.1 °C 1014.1 hPa WNW 19.3 km/h 29 km/h 57 % 0 mm 770 W/m2
10:23 17.8 °C 9.2 °C 1014.1 hPa WNW 17.7 km/h 29 km/h 57 % 0 mm 244 W/m2
10:28 17.6 °C 8.7 °C 1014.4 hPa WNW 16.1 km/h 35.4 km/h 56 % 0 mm 123 W/m2
10:33 17.7 °C 9.3 °C 1014.4 hPa WNW 16.1 km/h 35.4 km/h 58 % 0 mm 810 W/m2
10:38 17.9 °C 9 °C 1014.4 hPa WNW 16.1 km/h 32.2 km/h 56 % 0 mm 821 W/m2
10:43 18.2 °C 9.3 °C 1014.4 hPa WNW 14.5 km/h 25.7 km/h 56 % 0 mm 265 W/m2
10:48 18.4 °C 9.2 °C 1014.1 hPa WNW 12.9 km/h 25.7 km/h 55 % 0 mm 779 W/m2
10:53 18.3 °C 9.1 °C 1014.4 hPa WNW 14.5 km/h 29 km/h 55 % 0 mm 169 W/m2
10:58 18 °C 9.1 °C 1014.4 hPa WNW 14.5 km/h 29 km/h 56 % 0 mm 160 W/m2
11:03 17.6 °C 8.7 °C 1014.4 hPa WNW 14.5 km/h 25.7 km/h 56 % 0 mm 807 W/m2
11:08 17.7 °C 9.1 °C 1014.4 hPa WNW 17.7 km/h 29 km/h 57 % 0 mm 932 W/m2
11:13 17.8 °C 8.1 °C 1014.4 hPa WNW 17.7 km/h 29 km/h 53 % 0 mm 202 W/m2
11:18 18 °C 8.8 °C 1014.4 hPa WNW 14.5 km/h 29 km/h 55 % 0 mm 937 W/m2
11:23 18.1 °C 8.4 °C 1014.4 hPa WNW 16.1 km/h 33.8 km/h 53 % 0 mm 816 W/m2
11:28 18.1 °C 8.9 °C 1014.4 hPa WNW 19.3 km/h 33.8 km/h 55 % 0 mm 824 W/m2
11:33 18.3 °C 8.6 °C 1014.4 hPa WNW 19.3 km/h 32.2 km/h 53 % 0 mm 879 W/m2
11:38 18.6 °C 8.6 °C 1014.4 hPa WNW 20.9 km/h 37 km/h 52 % 0 mm 921 W/m2
11:43 18.7 °C 8.6 °C 1014.4 hPa WNW 20.9 km/h 37 km/h 52 % 0 mm 969 W/m2
11:48 18.8 °C 8.4 °C 1014.4 hPa West 20.9 km/h 38.6 km/h 51 % 0 mm 888 W/m2
11:53 18.9 °C 8.6 °C 1014.4 hPa West 22.5 km/h 38.6 km/h 51 % 0 mm 858 W/m2
11:58 18.8 °C 8.2 °C 1014.1 hPa WNW 24.1 km/h 38.6 km/h 50 % 0 mm 867 W/m2
12:03 18.8 °C 8.4 °C 1014.1 hPa WNW 24.1 km/h 38.6 km/h 51 % 0 mm 858 W/m2
12:08 19.1 °C 8.7 °C 1014.4 hPa WNW 20.9 km/h 35.4 km/h 51 % 0 mm 847 W/m2
12:13 19.3 °C 8.3 °C 1014.4 hPa WNW 20.9 km/h 40.2 km/h 49 % 0 mm 874 W/m2
12:18 19.3 °C 8.3 °C 1014.4 hPa WNW 22.5 km/h 41.8 km/h 49 % 0 mm 905 W/m2
12:24 19.4 °C 8.4 °C 1014.4 hPa WNW 22.5 km/h 41.8 km/h 49 % 0 mm 947 W/m2
12:29 19.4 °C 8.4 °C 1014.4 hPa WNW 20.9 km/h 37 km/h 49 % 0 mm 244 W/m2
12:34 19.3 °C 8.3 °C 1014.4 hPa WNW 20.9 km/h 38.6 km/h 49 % 0 mm 684 W/m2
12:39 19.1 °C 8.1 °C 1014.4 hPa WNW 22.5 km/h 38.6 km/h 49 % 0 mm 742 W/m2
12:44 19.1 °C 8.4 °C 1014.4 hPa West 20.9 km/h 37 km/h 50 % 0 mm 316 W/m2
12:49 18.7 °C 7.8 °C 1014.4 hPa WNW 20.9 km/h 35.4 km/h 49 % 0 mm 292 W/m2
12:54 18.6 °C 7.9 °C 1014.4 hPa WNW 20.9 km/h 35.4 km/h 50 % 0 mm 420 W/m2
12:59 18.6 °C 7.9 °C 1014.4 hPa WNW 17.7 km/h 32.2 km/h 50 % 0 mm 471 W/m2
13:04 18.7 °C 8.1 °C 1014.8 hPa WNW 19.3 km/h 37 km/h 50 % 0 mm 759 W/m2
13:09 18.7 °C 8.1 °C 1014.8 hPa WNW 19.3 km/h 37 km/h 50 % 0 mm 350 W/m2
13:14 18.9 °C 7.9 °C 1014.8 hPa WNW 19.3 km/h 35.4 km/h 49 % 0 mm 1016 W/m2
13:19 19.1 °C 8.7 °C 1014.8 hPa West 19.3 km/h 35.4 km/h 51 % 0 mm 875 W/m2
13:24 19.3 °C 8.6 °C 1014.8 hPa West 20.9 km/h 38.6 km/h 50 % 0 mm 793 W/m2
13:29 19.3 °C 8.6 °C 1014.8 hPa West 20.9 km/h 38.6 km/h 50 % 0 mm 547 W/m2
13:34 19.3 °C 8.3 °C 1014.8 hPa West 19.3 km/h 32.2 km/h 49 % 0 mm 722 W/m2
13:39 19.2 °C 8.8 °C 1014.8 hPa West 17.7 km/h 30.6 km/h 51 % 0 mm 343 W/m2
13:44 19.1 °C 8.4 °C 1014.8 hPa West 17.7 km/h 35.4 km/h 50 % 0 mm 956 W/m2
13:49 19.2 °C 8.2 °C 1015.1 hPa West 20.9 km/h 37 km/h 49 % 0 mm 853 W/m2
13:54 19.4 °C 8.4 °C 1014.8 hPa WNW 20.9 km/h 37 km/h 49 % 0 mm 842 W/m2
13:59 19.6 °C 8.9 °C 1015.1 hPa WNW 19.3 km/h 33.8 km/h 50 % 0 mm 893 W/m2
14:04 19.6 °C 8.6 °C 1015.1 hPa West 17.7 km/h 33.8 km/h 49 % 0 mm 881 W/m2
14:09 19.7 °C 9 °C 1015.1 hPa West 17.7 km/h 30.6 km/h 50 % 0 mm 346 W/m2
14:14 19.7 °C 9 °C 1015.1 hPa West 17.7 km/h 33.8 km/h 50 % 0 mm 364 W/m2
14:19 19.6 °C 8.3 °C 1015.1 hPa WNW 19.3 km/h 35.4 km/h 48 % 0 mm 313 W/m2
14:24 19.6 °C 8.6 °C 1015.1 hPa WNW 19.3 km/h 35.4 km/h 49 % 0 mm 993 W/m2
14:29 19.6 °C 8.6 °C 1015.5 hPa WNW 20.9 km/h 35.4 km/h 49 % 0 mm 1009 W/m2
14:34 19.6 °C 8.6 °C 1015.1 hPa WNW 20.9 km/h 33.8 km/h 49 % 0 mm 299 W/m2
14:39 19.7 °C 8.4 °C 1015.5 hPa WNW 17.7 km/h 35.4 km/h 48 % 0 mm 1007 W/m2
14:44 19.7 °C 8.1 °C 1015.5 hPa WNW 19.3 km/h 35.4 km/h 47 % 0 mm 223 W/m2
14:49 19.4 °C 8.4 °C 1015.5 hPa WNW 17.7 km/h 33.8 km/h 49 % 0 mm 216 W/m2
14:54 19.2 °C 8.2 °C 1015.5 hPa WNW 16.1 km/h 33.8 km/h 49 % 0 mm 1000 W/m2
14:55 19.2 °C 8.5 °C 1015.5 hPa WNW 16.1 km/h 33.8 km/h 50 % 0 mm 1000 W/m2
15:00 19.5 °C 8.8 °C 1015.5 hPa WNW 16.1 km/h 32.2 km/h 50 % 0 mm 311 W/m2
15:05 19.5 °C 8.2 °C 1015.5 hPa WNW 17.7 km/h 32.2 km/h 48 % 0 mm 276 W/m2
15:10 19.6 °C 8.6 °C 1015.5 hPa West 19.3 km/h 32.2 km/h 49 % 0 mm 926 W/m2
15:15 19.9 °C 8.2 °C 1015.5 hPa West 20.9 km/h 33.8 km/h 47 % 0 mm 919 W/m2
15:20 20.2 °C 8.8 °C 1015.1 hPa WNW 17.7 km/h 33.8 km/h 48 % 0 mm 860 W/m2
15:25 20.4 °C 8.7 °C 1015.5 hPa WNW 16.1 km/h 38.6 km/h 47 % 0 mm 784 W/m2
15:30 20.3 °C 7.9 °C 1015.5 hPa WNW 19.3 km/h 38.6 km/h 45 % 0 mm 802 W/m2
15:35 20.2 °C 7.9 °C 1015.1 hPa West 20.9 km/h 38.6 km/h 45 % 0 mm 802 W/m2
15:40 20 °C 8 °C 1015.5 hPa WNW 19.3 km/h 35.4 km/h 46 % 0 mm 821 W/m2
15:45 20.1 °C 8.1 °C 1015.5 hPa WNW 19.3 km/h 35.4 km/h 46 % 0 mm 798 W/m2
15:50 20 °C 8.7 °C 1015.5 hPa West 20.9 km/h 35.4 km/h 48 % 0 mm 809 W/m2
15:52 20 °C 8.7 °C 1015.5 hPa West 22.5 km/h 35.4 km/h 48 % 0 mm 246 W/m2
15:57 19.7 °C 8.4 °C 1015.5 hPa West 20.9 km/h 33.8 km/h 48 % 0 mm 369 W/m2
16:02 19.4 °C 8.4 °C 1015.5 hPa WNW 19.3 km/h 41.8 km/h 49 % 0 mm 367 W/m2
16:07 19.3 °C 8.9 °C 1015.5 hPa WNW 20.9 km/h 41.8 km/h 51 % 0 mm 462 W/m2
16:12 19.2 °C 9.1 °C 1015.8 hPa West 19.3 km/h 37 km/h 52 % 0 mm 726 W/m2
16:17 19.3 °C 9.2 °C 1015.8 hPa West 19.3 km/h 35.4 km/h 52 % 0 mm 691 W/m2
16:22 19.4 °C 9 °C 1015.8 hPa West 19.3 km/h 35.4 km/h 51 % 0 mm 691 W/m2
16:27 19.5 °C 8.8 °C 1015.8 hPa West 20.9 km/h 40.2 km/h 50 % 0 mm 708 W/m2
16:32 19.6 °C 8.6 °C 1015.8 hPa West 22.5 km/h 40.2 km/h 49 % 0 mm 671 W/m2
16:35 19.7 °C 8.7 °C 1015.8 hPa West 22.5 km/h 40.2 km/h 49 % 0 mm 656 W/m2
16:40 19.8 °C 8.8 °C 1015.8 hPa WNW 22.5 km/h 40.2 km/h 49 % 0 mm 631 W/m2
16:45 19.9 °C 8.9 °C 1015.8 hPa WNW 20.9 km/h 40.2 km/h 49 % 0 mm 608 W/m2
16:50 19.8 °C 8.4 °C 1015.8 hPa WNW 20.9 km/h 37 km/h 48 % 0 mm 587 W/m2
16:55 19.6 °C 8.6 °C 1015.8 hPa WNW 20.9 km/h 37 km/h 49 % 0 mm 357 W/m2
17:00 19.7 °C 9 °C 1015.8 hPa WNW 17.7 km/h 30.6 km/h 50 % 0 mm 671 W/m2
17:05 19.9 °C 8.6 °C 1015.8 hPa WNW 19.3 km/h 40.2 km/h 48 % 0 mm 610 W/m2
17:07 20 °C 8.3 °C 1015.8 hPa WNW 19.3 km/h 40.2 km/h 47 % 0 mm 598 W/m2
17:12 19.9 °C 8.6 °C 1015.8 hPa West 20.9 km/h 40.2 km/h 48 % 0 mm 538 W/m2
17:17 19.8 °C 8.2 °C 1015.8 hPa West 20.9 km/h 33.8 km/h 47 % 0 mm 496 W/m2
17:23 19.6 °C 8 °C 1015.8 hPa West 20.9 km/h 40.2 km/h 47 % 0 mm 487 W/m2
17:28 19.6 °C 8.3 °C 1016.1 hPa WNW 19.3 km/h 40.2 km/h 48 % 0 mm 464 W/m2
17:33 19.6 °C 8.3 °C 1016.1 hPa WNW 17.7 km/h 33.8 km/h 48 % 0 mm 445 W/m2
17:38 19.7 °C 8.7 °C 1016.1 hPa WNW 16.1 km/h 30.6 km/h 49 % 0 mm 454 W/m2
17:43 19.6 °C 8.6 °C 1016.1 hPa WNW 16.1 km/h 30.6 km/h 49 % 0 mm 443 W/m2
17:48 19.7 °C 8.7 °C 1016.1 hPa WNW 16.1 km/h 30.6 km/h 49 % 0 mm 443 W/m2
17:53 19.7 °C 8.7 °C 1016.1 hPa WNW 16.1 km/h 30.6 km/h 49 % 0 mm 446 W/m2
17:58 19.6 °C 8.9 °C 1016.1 hPa WNW 16.1 km/h 30.6 km/h 50 % 0 mm 190 W/m2
18:03 19.3 °C 8.9 °C 1016.1 hPa WNW 16.1 km/h 32.2 km/h 51 % 0 mm 185 W/m2
18:08 19.1 °C 8.7 °C 1016.1 hPa WNW 19.3 km/h 37 km/h 51 % 0 mm 156 W/m2
18:13 18.8 °C 9 °C 1016.5 hPa WNW 17.7 km/h 37 km/h 53 % 0 mm 111 W/m2
18:18 18.6 °C 9.1 °C 1016.5 hPa WNW 12.9 km/h 25.7 km/h 54 % 0 mm 381 W/m2
18:23 18.6 °C 9.4 °C 1016.5 hPa WNW 12.9 km/h 29 km/h 55 % 0 mm 329 W/m2
18:28 18.7 °C 9.4 °C 1016.5 hPa WNW 16.1 km/h 30.6 km/h 55 % 0 mm 316 W/m2
18:33 18.7 °C 9.2 °C 1016.5 hPa WNW 16.1 km/h 37 km/h 54 % 0 mm 297 W/m2
18:38 18.7 °C 8.6 °C 1016.5 hPa WNW 19.3 km/h 37 km/h 52 % 0 mm 292 W/m2
18:43 18.6 °C 9.1 °C 1016.5 hPa WNW 19.3 km/h 32.2 km/h 54 % 0 mm 267 W/m2
18:48 18.5 °C 8.7 °C 1016.5 hPa WNW 17.7 km/h 30.6 km/h 53 % 0 mm 250 W/m2
18:53 18.4 °C 8.9 °C 1016.5 hPa WNW 17.7 km/h 32.2 km/h 54 % 0 mm 239 W/m2
18:58 18.3 °C 8.8 °C 1016.8 hPa WNW 16.1 km/h 32.2 km/h 54 % 0 mm 237 W/m2
19:03 18.2 °C 9 °C 1016.8 hPa WNW 17.7 km/h 32.2 km/h 55 % 0 mm 209 W/m2
19:07 18.1 °C 8.9 °C 1016.8 hPa WNW 19.3 km/h 33.8 km/h 55 % 0 mm 193 W/m2
19:12 18 °C 9.1 °C 1016.8 hPa WNW 19.3 km/h 37 km/h 56 % 0 mm 178 W/m2
19:17 17.9 °C 9 °C 1016.8 hPa West 19.3 km/h 38.6 km/h 56 % 0 mm 160 W/m2
19:22 17.7 °C 9.1 °C 1016.8 hPa West 19.3 km/h 38.6 km/h 57 % 0 mm 148 W/m2
19:27 17.6 °C 9.2 °C 1016.8 hPa West 19.3 km/h 33.8 km/h 58 % 0 mm 137 W/m2
19:32 17.5 °C 9.2 °C 1016.8 hPa WNW 16.1 km/h 33.8 km/h 58 % 0 mm 127 W/m2
19:37 17.4 °C 9.3 °C 1016.8 hPa WNW 16.1 km/h 25.7 km/h 59 % 0 mm 113 W/m2
19:42 17.4 °C 9.6 °C 1016.8 hPa WNW 14.5 km/h 24.1 km/h 60 % 0 mm 98 W/m2
19:47 17.3 °C 9.4 °C 1017.2 hPa WNW 12.9 km/h 29 km/h 60 % 0 mm 88 W/m2
19:52 17.2 °C 9.4 °C 1017.2 hPa WNW 14.5 km/h 29 km/h 60 % 0 mm 74 W/m2
19:57 16.9 °C 9.3 °C 1017.2 hPa WNW 12.9 km/h 24.1 km/h 61 % 0 mm 65 W/m2
20:02 16.7 °C 9.4 °C 1017.2 hPa WNW 12.9 km/h 33.8 km/h 62 % 0 mm 42 W/m2
20:07 16.5 °C 9.2 °C 1017.2 hPa WNW 14.5 km/h 33.8 km/h 62 % 0 mm 23 W/m2
20:12 16.3 °C 9.2 °C 1017.2 hPa WNW 12.9 km/h 25.7 km/h 63 % 0 mm 21 W/m2
20:17 16.1 °C 9.1 °C 1017.5 hPa West 11.3 km/h 24.1 km/h 63 % 0 mm 16 W/m2
20:22 15.9 °C 9.1 °C 1017.5 hPa West 12.9 km/h 24.1 km/h 64 % 0 mm 14 W/m2
20:27 15.7 °C 9.1 °C 1017.5 hPa West 12.9 km/h 20.9 km/h 65 % 0 mm 14 W/m2
20:32 15.6 °C 9.3 °C 1017.5 hPa West 12.9 km/h 20.9 km/h 66 % 0 mm 12 W/m2
20:37 15.4 °C 9.3 °C 1017.5 hPa West 11.3 km/h 22.5 km/h 67 % 0 mm 11 W/m2
20:42 15.2 °C 9.3 °C 1017.5 hPa West 12.9 km/h 22.5 km/h 68 % 0 mm 9 W/m2
20:52 14.9 °C 9.3 °C 1017.8 hPa WNW 12.9 km/h 24.1 km/h 69 % 0 mm 5 W/m2
20:57 14.8 °C 9.4 °C 1017.8 hPa WNW 12.9 km/h 24.1 km/h 70 % 0 mm 0 W/m2
21:07 14.6 °C 9.4 °C 1017.8 hPa WNW 12.9 km/h 22.5 km/h 71 % 0 mm 0 W/m2
21:12 14.5 °C 9.3 °C 1017.8 hPa WNW 12.9 km/h 20.9 km/h 71 % 0 mm 0 W/m2
21:18 14.4 °C 9.2 °C 1017.8 hPa WNW 12.9 km/h 20.9 km/h 71 % 0 mm 0 W/m2
21:23 14.3 °C 9.3 °C 1017.8 hPa WNW 12.9 km/h 22.5 km/h 72 % 0 mm 0 W/m2
21:28 14.2 °C 9.2 °C 1017.8 hPa WNW 12.9 km/h 22.5 km/h 72 % 0 mm 0 W/m2
21:33 14.1 °C 9.3 °C 1017.8 hPa WNW 11.3 km/h 22.5 km/h 73 % 0 mm 0 W/m2
21:38 14 °C 9.2 °C 1018.2 hPa WNW 11.3 km/h 20.9 km/h 73 % 0 mm 0 W/m2
21:43 13.9 °C 9.3 °C 1018.2 hPa WNW 12.9 km/h 20.9 km/h 74 % 0 mm 0 W/m2
21:48 13.8 °C 9.2 °C 1018.2 hPa WNW 11.3 km/h 20.9 km/h 74 % 0 mm 0 W/m2
21:53 13.7 °C 9.3 °C 1018.2 hPa WNW 11.3 km/h 17.7 km/h 75 % 0 mm 0 W/m2
21:58 13.6 °C 9.2 °C 1018.2 hPa WNW 9.7 km/h 16.1 km/h 75 % 0 mm 0 W/m2
22:03 13.5 °C 9.3 °C 1018.2 hPa WNW 9.7 km/h 17.7 km/h 76 % 0 mm 0 W/m2
22:08 13.3 °C 9.2 °C 1018.2 hPa West 8 km/h 17.7 km/h 76 % 0 mm 0 W/m2
22:13 13.1 °C 9.2 °C 1018.2 hPa West 9.7 km/h 14.5 km/h 77 % 0 mm 0 W/m2
22:18 13 °C 9.1 °C 1018.5 hPa West 9.7 km/h 14.5 km/h 77 % 0 mm 0 W/m2
22:23 12.9 °C 9.2 °C 1018.5 hPa WNW 8 km/h 16.1 km/h 78 % 0 mm 0 W/m2
22:28 12.8 °C 9.2 °C 1018.5 hPa West 8 km/h 16.1 km/h 79 % 0 mm 0 W/m2
22:33 12.7 °C 9.2 °C 1018.5 hPa West 8 km/h 16.1 km/h 79 % 0 mm 0 W/m2
22:38 12.7 °C 9.3 °C 1018.5 hPa West 8 km/h 16.1 km/h 80 % 0 mm 0 W/m2
22:43 12.6 °C 9.2 °C 1018.5 hPa WNW 8 km/h 14.5 km/h 80 % 0 mm 0 W/m2
22:48 12.6 °C 9.4 °C 1018.5 hPa West 8 km/h 14.5 km/h 81 % 0 mm 0 W/m2
22:53 12.4 °C 9.2 °C 1018.5 hPa West 8 km/h 12.9 km/h 81 % 0 mm 0 W/m2
22:58 12.4 °C 9.2 °C 1018.5 hPa WNW 8 km/h 12.9 km/h 81 % 0 mm 0 W/m2
23:03 12.3 °C 9.3 °C 1018.8 hPa WNW 6.4 km/h 12.9 km/h 82 % 0 mm 0 W/m2
23:08 12.2 °C 9.2 °C 1018.8 hPa WNW 4.8 km/h 11.3 km/h 82 % 0 mm 0 W/m2
23:13 12.2 °C 9.4 °C 1018.8 hPa WNW 3.2 km/h 8 km/h 83 % 0 mm 0 W/m2
23:18 12.2 °C 9.4 °C 1018.8 hPa WNW 3.2 km/h 8 km/h 83 % 0 mm 0 W/m2
23:23 12.2 °C 9.4 °C 1018.8 hPa WNW 1.6 km/h 6.4 km/h 83 % 0 mm 0 W/m2
23:28 12.1 °C 9.3 °C 1018.8 hPa WNW 1.6 km/h 6.4 km/h 83 % 0 mm 0 W/m2
23:33 11.9 °C 9.1 °C 1018.8 hPa Calm   3.2 km/h 83 % 0 mm 0 W/m2
23:38 11.8 °C 9 °C 1018.8 hPa Calm   3.2 km/h 83 % 0 mm 0 W/m2
23:43 11.7 °C 9.1 °C 1018.8 hPa Calm   3.2 km/h 84 % 0 mm 0 W/m2
23:48 11.6 °C 9 °C 1018.8 hPa Calm   1.6 km/h 84 % 0 mm 0 W/m2
23:53 11.4 °C 8.9 °C 1018.8 hPa Calm   1.6 km/h 85 % 0 mm 0 W/m2
23:58 11.4 °C 9.2 °C 1018.8 hPa Calm     86 % 0 mm 0 W/m2
Delerius-Weather
Compliments of Weather Underground - 2.25 mb

Data updates at regular intervals.